Time;durP1;ratioP1;P1;durP2;ratioP2;P2;SDS_P1;SDS_P2;PMS_P1;PMS_P2;Temp;Humidity;BMP_temperature;BMP_pressure;BME280_temperature;BME280_humidity;BME280_pressure;Samples;Min_cycle;Max_cycle;Signal;HPM_P1;HPM_P2
2021/08/07 00:01:21;0.00;0.00;0.62;0.00;0.00;0.62;2.90;2.00;;;25.60;40.60;;;;;;2253122;61;20431;-55
2021/08/07 00:03:48;0.00;0.00;0.62;0.00;0.00;0.62;2.70;2.10;;;25.70;40.60;;;;;;2253409;61;20356;-57
2021/08/07 00:06:14;0.00;0.00;0.62;0.00;0.00;0.62;3.27;2.30;;;25.70;40.60;;;;;;2252608;61;20364;-55
2021/08/07 00:08:41;0.00;0.00;0.62;0.00;0.00;0.62;2.73;2.43;;;25.70;40.40;;;;;;2252926;61;20488;-55
2021/08/07 00:11:08;0.00;0.00;0.62;0.00;0.00;0.62;3.33;2.17;;;25.70;40.30;;;;;;2253480;61;20384;-55
2021/08/07 00:13:35;0.00;0.00;0.62;0.00;0.00;0.62;2.97;2.20;;;25.70;40.30;;;;;;2252594;61;20391;-55
2021/08/07 00:16:03;0.00;0.00;0.62;0.00;0.00;0.62;3.40;2.07;;;25.70;40.30;;;;;;2253069;61;20357;-54
2021/08/07 00:18:30;0.00;0.00;0.62;0.00;0.00;0.62;2.80;2.03;;;25.70;40.30;;;;;;2253355;61;20369;-56
2021/08/07 00:20:57;0.00;0.00;0.62;0.00;0.00;0.62;2.50;2.10;;;25.70;40.30;;;;;;2252580;61;20731;-54
2021/08/07 00:23:23;0.00;0.00;0.62;0.00;0.00;0.62;2.37;2.17;;;25.70;40.30;;;;;;2252956;61;20364;-56
2021/08/07 00:25:50;0.00;0.00;0.62;0.00;0.00;0.62;2.13;1.90;;;25.70;40.30;;;;;;2253367;61;20357;-58
2021/08/07 00:28:16;0.00;0.00;0.62;0.00;0.00;0.62;2.47;2.07;;;25.70;40.30;;;;;;2252524;61;20363;-56
2021/08/07 00:30:43;0.00;0.00;0.62;0.00;0.00;0.62;2.07;1.70;;;25.70;40.40;;;;;;2252911;61;20676;-54
2021/08/07 00:33:11;0.00;0.00;0.62;0.00;0.00;0.62;3.20;1.70;;;25.70;40.30;;;;;;2256195;61;20380;-57
2021/08/07 00:35:38;0.00;0.00;0.62;0.00;0.00;0.62;2.07;1.87;;;25.70;40.30;;;;;;2255513;61;20361;-57
2021/08/07 00:38:05;0.00;0.00;0.62;0.00;0.00;0.62;2.50;2.20;;;25.70;40.30;;;;;;2256098;61;20360;-55
2021/08/07 00:40:32;0.00;0.00;0.62;0.00;0.00;0.62;2.50;2.10;;;25.60;40.30;;;;;;2256711;61;20456;-56
2021/08/07 00:43:01;0.00;0.00;0.62;0.00;0.00;0.62;3.27;1.60;;;25.70;40.40;;;;;;2256094;61;20411;-55
2021/08/07 00:45:33;0.00;0.00;0.62;0.00;0.00;0.62;3.50;1.70;;;25.70;40.30;;;;;;2256430;61;20383;-56
2021/08/07 00:48:01;0.00;0.00;0.62;0.00;0.00;0.62;2.63;1.43;;;25.70;40.40;;;;;;2256825;61;20387;-58
2021/08/07 00:50:29;0.00;0.00;0.62;0.00;0.00;0.62;2.07;1.70;;;25.70;40.30;;;;;;2253211;61;20381;-55
2021/08/07 00:52:56;0.00;0.00;0.62;0.00;0.00;0.62;2.20;1.50;;;25.70;40.40;;;;;;2256456;61;20745;-57
2021/08/07 00:55:27;0.00;0.00;0.62;0.00;0.00;0.62;2.20;2.00;;;25.60;40.30;;;;;;2256754;61;20366;-55
2021/08/07 00:57:55;0.00;0.00;0.62;0.00;0.00;0.62;1.87;1.57;;;25.60;40.30;;;;;;2256118;61;20357;-52
2021/08/07 01:00:23;0.00;0.00;0.62;0.00;0.00;0.62;2.53;1.90;;;25.60;40.30;;;;;;2256435;61;20368;-56
2021/08/07 01:03:01;0.00;0.00;0.62;0.00;0.00;0.62;2.40;2.03;;;25.60;40.30;;;;;;2256740;61;20349;-54
2021/08/07 01:05:39;0.00;0.00;0.62;0.00;0.00;0.62;4.30;1.90;;;25.50;40.20;;;;;;2256009;61;20561;-58
2021/08/07 01:08:16;0.00;0.00;0.62;0.00;0.00;0.62;1.73;1.50;;;25.50;40.20;;;;;;2256378;61;20360;-55
2021/08/07 01:10:56;0.00;0.00;0.62;0.00;0.00;0.62;3.07;1.87;;;25.50;40.20;;;;;;2256646;61;20418;-58
2021/08/07 01:13:29;0.00;0.00;0.62;0.00;0.00;0.62;2.73;1.40;;;25.50;40.20;;;;;;2253497;61;20717;-56
2021/08/07 01:16:05;0.00;0.00;0.62;0.00;0.00;0.62;1.70;1.50;;;25.50;40.20;;;;;;2256375;61;20410;-56
2021/08/07 01:18:37;0.00;0.00;0.62;0.00;0.00;0.62;2.20;1.70;;;25.50;40.20;;;;;;2256292;61;20360;-58
2021/08/07 01:21:08;0.00;0.00;0.62;0.00;0.00;0.62;2.90;1.60;;;25.50;40.20;;;;;;2256655;61;20407;-55
2021/08/07 01:23:49;0.00;0.00;0.62;0.00;0.00;0.62;2.63;1.80;;;25.50;40.20;;;;;;2256495;61;20365;-55
2021/08/07 01:26:27;0.00;0.00;0.62;0.00;0.00;0.62;1.90;1.43;;;25.50;40.20;;;;;;2256071;61;20399;-58
2021/08/07 01:29:15;0.00;0.00;0.62;0.00;0.00;0.62;2.83;1.50;;;25.50;40.20;;;;;;2256196;61;20368;-56
2021/08/07 01:31:47;0.00;0.00;0.62;0.00;0.00;0.62;2.50;1.80;;;25.50;40.20;;;;;;2253917;61;20597;-57
2021/08/07 01:34:17;0.00;0.00;0.62;0.00;0.00;0.62;2.47;1.77;;;25.50;40.20;;;;;;2256093;61;20384;-57
2021/08/07 01:36:48;0.00;0.00;0.62;0.00;0.00;0.62;1.90;1.30;;;25.50;40.20;;;;;;2256301;61;20630;-57
2021/08/07 01:39:22;0.00;0.00;0.62;0.00;0.00;0.62;2.37;1.43;;;25.50;40.20;;;;;;2256529;61;20353;-53
2021/08/07 01:41:52;0.00;0.00;0.62;0.00;0.00;0.62;1.93;1.50;;;25.50;40.20;;;;;;2255946;61;20357;-57
2021/08/07 01:44:24;0.00;0.00;0.62;0.00;0.00;0.62;2.37;1.57;;;25.50;40.20;;;;;;2256271;61;20364;-54
2021/08/07 01:47:01;0.00;0.00;0.62;0.00;0.00;0.62;1.70;1.60;;;25.50;40.20;;;;;;2256508;61;20364;-54
2021/08/07 01:49:41;0.00;0.00;0.62;0.00;0.00;0.62;2.40;1.57;;;25.50;40.20;;;;;;2255648;61;20357;-54
2021/08/07 01:52:14;0.00;0.00;0.62;0.00;0.00;0.62;4.53;1.40;;;25.50;40.90;;;;;;2256290;61;20427;-57
2021/08/07 01:55:01;0.00;0.00;0.62;0.00;0.00;0.62;2.43;1.47;;;25.50;40.20;;;;;;2256678;61;20364;-55
2021/08/07 01:57:34;0.00;0.00;0.62;0.00;0.00;0.62;3.20;1.40;;;25.50;40.20;;;;;;2256043;61;20420;-55
2021/08/07 02:00:06;0.00;0.00;0.62;0.00;0.00;0.62;2.73;1.50;;;25.60;40.30;;;;;;2252842;61;20384;-58
2021/08/07 02:02:40;0.00;0.00;0.62;0.00;0.00;0.62;2.30;1.50;;;25.60;40.30;;;;;;2253840;61;20748;-57
2021/08/07 02:05:11;0.00;0.00;0.62;0.00;0.00;0.62;2.67;1.60;;;25.60;40.30;;;;;;2255947;61;20360;-56
2021/08/07 02:07:39;0.00;0.00;0.62;0.00;0.00;0.62;2.10;1.50;;;25.60;40.30;;;;;;2256238;61;20357;-54
2021/08/07 02:10:09;0.00;0.00;0.62;0.00;0.00;0.62;2.03;1.70;;;25.60;40.30;;;;;;2256439;61;20392;-56
2021/08/07 02:12:41;0.00;0.00;0.62;0.00;0.00;0.62;2.30;1.70;;;25.60;40.20;;;;;;2256126;61;20392;-57
2021/08/07 02:15:17;0.00;0.00;0.62;0.00;0.00;0.62;2.50;1.47;;;25.60;40.20;;;;;;2256279;61;20356;-58
2021/08/07 02:17:46;0.00;0.00;0.62;0.00;0.00;0.62;3.00;1.77;;;25.60;40.10;;;;;;2256307;61;20727;-56
2021/08/07 02:20:16;0.00;0.00;0.62;0.00;0.00;0.62;1.90;1.70;;;25.60;40.00;;;;;;2256302;61;20609;-54
2021/08/07 02:22:46;0.00;0.00;0.62;0.00;0.00;0.62;1.80;1.60;;;25.60;40.00;;;;;;2256229;61;20364;-57
2021/08/07 02:25:13;0.00;0.00;0.62;0.00;0.00;0.62;2.13;1.50;;;25.60;39.90;;;;;;2255963;61;20357;-55
2021/08/07 02:27:52;0.00;0.00;0.62;0.00;0.00;0.62;2.33;1.83;;;25.60;39.90;;;;;;2256398;61;20403;-54
2021/08/07 02:30:22;0.00;0.00;0.62;0.00;0.00;0.62;3.47;1.73;;;25.60;39.80;;;;;;2256257;61;20381;-56
2021/08/07 02:32:53;0.00;0.00;0.62;0.00;0.00;0.62;2.67;1.97;;;25.60;39.90;;;;;;2255934;61;20391;-58
2021/08/07 02:35:22;0.00;0.00;0.62;0.00;0.00;0.62;2.50;1.80;;;25.60;39.80;;;;;;2256209;61;20387;-56
2021/08/07 02:37:53;0.00;0.00;0.62;0.00;0.00;0.62;2.73;1.57;;;25.60;39.80;;;;;;2256483;61;20382;-54
2021/08/07 02:40:21;0.00;0.00;0.62;0.00;0.00;0.62;2.03;1.63;;;25.50;39.60;;;;;;2255768;61;20430;-58
2021/08/07 02:42:53;0.00;0.00;0.62;0.00;0.00;0.62;2.17;1.77;;;25.50;39.60;;;;;;2256149;61;20407;-57
2021/08/07 02:45:23;0.00;0.00;0.62;0.00;0.00;0.62;6.23;1.77;;;25.50;39.50;;;;;;2256407;61;20357;-55
2021/08/07 02:47:50;0.00;0.00;0.62;0.00;0.00;0.62;2.87;1.97;;;25.50;39.50;;;;;;2252589;61;20668;-56
2021/08/07 02:50:19;0.00;0.00;0.62;0.00;0.00;0.62;3.27;1.80;;;25.50;39.50;;;;;;2255899;61;20395;-56
2021/08/07 02:52:47;0.00;0.00;0.62;0.00;0.00;0.62;2.60;1.70;;;25.50;39.50;;;;;;2253549;61;20612;-54
2021/08/07 02:55:17;0.00;0.00;0.62;0.00;0.00;0.62;3.00;1.63;;;25.50;39.40;;;;;;2255874;61;20402;-56
2021/08/07 02:57:43;0.00;0.00;0.62;0.00;0.00;0.62;1.90;1.37;;;25.40;39.30;;;;;;2256023;61;20361;-53
2021/08/07 03:00:14;0.00;0.00;0.62;0.00;0.00;0.62;2.57;1.83;;;25.40;39.30;;;;;;2256216;61;20369;-56
2021/08/07 03:02:42;0.00;0.00;0.62;0.00;0.00;0.62;3.00;2.03;;;25.40;39.30;;;;;;2255852;61;20624;-57
2021/08/07 03:05:10;0.00;0.00;0.62;0.00;0.00;0.62;2.40;2.00;;;25.40;39.20;;;;;;2255825;61;20444;-55
2021/08/07 03:07:40;0.00;0.00;0.62;0.00;0.00;0.62;3.30;1.80;;;25.30;39.10;;;;;;2256246;61;20361;-55
2021/08/07 03:10:09;0.00;0.00;0.62;0.00;0.00;0.62;4.10;2.03;;;25.30;39.20;;;;;;2255720;61;20384;-55
2021/08/07 03:12:37;0.00;0.00;0.62;0.00;0.00;0.62;2.27;1.37;;;25.20;39.10;;;;;;2252654;61;20352;-56
2021/08/07 03:15:07;0.00;0.00;0.62;0.00;0.00;0.62;1.90;1.63;;;25.20;39.10;;;;;;2256395;61;20364;-56
2021/08/07 03:17:34;0.00;0.00;0.62;0.00;0.00;0.62;2.37;1.80;;;25.20;39.20;;;;;;2255805;61;20689;-55
2021/08/07 03:20:03;0.00;0.00;0.62;0.00;0.00;0.62;1.80;1.40;;;25.20;39.20;;;;;;2255822;61;20381;-56
2021/08/07 03:22:33;0.00;0.00;0.62;0.00;0.00;0.62;1.97;1.67;;;25.20;39.20;;;;;;2256419;61;20360;-55
2021/08/07 03:25:00;0.00;0.00;0.62;0.00;0.00;0.62;2.37;1.77;;;25.20;39.20;;;;;;2255572;61;20364;-56
2021/08/07 03:27:27;0.00;0.00;0.62;0.00;0.00;0.62;1.80;1.40;;;25.10;39.20;;;;;;2255762;61;20361;-57
2021/08/07 03:29:59;0.00;0.00;0.62;0.00;0.00;0.62;3.87;1.90;;;25.10;39.20;;;;;;2256233;61;20459;-56
2021/08/07 03:32:27;0.00;0.00;0.62;0.00;0.00;0.62;1.90;1.40;;;25.10;39.20;;;;;;2255679;61;20356;-54
2021/08/07 03:34:54;0.00;0.00;0.62;0.00;0.00;0.62;2.33;1.70;;;25.10;39.30;;;;;;2255950;61;20356;-58
2021/08/07 03:37:22;0.00;0.00;0.62;0.00;0.00;0.62;2.50;1.67;;;25.00;39.20;;;;;;2256317;61;20364;-57
2021/08/07 03:40:01;0.00;0.00;0.62;0.00;0.00;0.62;1.70;1.50;;;25.00;39.30;;;;;;2255537;61;20601;-54
2021/08/07 03:42:37;0.00;0.00;0.62;0.00;0.00;0.62;1.70;1.47;;;25.00;39.40;;;;;;2255929;61;20422;-56
2021/08/07 03:45:07;0.00;0.00;0.62;0.00;0.00;0.62;2.40;1.87;;;25.00;39.40;;;;;;2256239;61;20364;-54
2021/08/07 03:47:44;0.00;0.00;0.62;0.00;0.00;0.62;2.37;1.60;;;25.00;39.50;;;;;;2255447;61;20367;-58
2021/08/07 03:50:13;0.00;0.00;0.62;0.00;0.00;0.62;1.60;1.37;;;24.90;39.50;;;;;;2255693;61;20376;-58
2021/08/07 03:52:44;0.00;0.00;0.62;0.00;0.00;0.62;1.70;1.57;;;25.00;39.60;;;;;;2256298;61;20427;-55
2021/08/07 03:55:12;0.00;0.00;0.62;0.00;0.00;0.62;2.13;1.63;;;25.00;39.60;;;;;;2255558;61;20407;-55
2021/08/07 03:57:48;0.00;0.00;0.62;0.00;0.00;0.62;3.20;1.70;;;25.00;39.60;;;;;;2255890;61;20360;-56
2021/08/07 04:00:16;0.00;0.00;0.62;0.00;0.00;0.62;2.50;1.80;;;25.00;39.70;;;;;;2256221;61;20672;-51
2021/08/07 04:02:46;0.00;0.00;0.62;0.00;0.00;0.62;2.70;1.80;;;25.00;39.60;;;;;;2255470;61;20360;-56
2021/08/07 04:05:13;0.00;0.00;0.62;0.00;0.00;0.62;2.03;1.53;;;25.00;39.50;;;;;;2255748;61;20368;-58
2021/08/07 04:07:39;0.00;0.00;0.62;0.00;0.00;0.62;2.70;2.00;;;25.00;39.50;;;;;;2256109;61;20357;-55
2021/08/07 04:10:09;0.00;0.00;0.62;0.00;0.00;0.62;1.80;1.50;;;25.00;39.50;;;;;;2255428;61;20748;-55
2021/08/07 04:12:36;0.00;0.00;0.62;0.00;0.00;0.62;2.90;1.63;;;25.00;39.50;;;;;;2255709;61;20400;-55
2021/08/07 04:15:03;0.00;0.00;0.62;0.00;0.00;0.62;4.90;1.50;;;25.00;39.50;;;;;;2256195;61;20716;-55
2021/08/07 04:17:30;0.00;0.00;0.62;0.00;0.00;0.62;3.10;1.40;;;24.90;39.50;;;;;;2255479;61;20654;-53
2021/08/07 04:19:57;0.00;0.00;0.62;0.00;0.00;0.62;3.33;1.67;;;25.00;39.60;;;;;;2255726;61;20376;-57
2021/08/07 04:22:27;0.00;0.00;0.62;0.00;0.00;0.62;1.70;1.37;;;25.00;39.60;;;;;;2256244;61;20364;-54
2021/08/07 04:24:54;0.00;0.00;0.62;0.00;0.00;0.62;1.60;1.40;;;25.00;39.60;;;;;;2255409;61;20720;-55
2021/08/07 04:27:22;0.00;0.00;0.62;0.00;0.00;0.62;1.80;1.60;;;25.00;39.60;;;;;;2255796;61;20388;-55
2021/08/07 04:29:50;0.00;0.00;0.62;0.00;0.00;0.62;1.70;1.40;;;24.90;39.40;;;;;;2255937;61;20652;-54
2021/08/07 04:32:18;0.00;0.00;0.62;0.00;0.00;0.62;2.93;1.70;;;24.90;39.40;;;;;;2255484;61;20357;-55
2021/08/07 04:34:46;0.00;0.00;0.62;0.00;0.00;0.62;1.87;1.57;;;24.90;39.30;;;;;;2255831;61;20383;-55
2021/08/07 04:37:16;0.00;0.00;0.62;0.00;0.00;0.62;1.93;1.47;;;24.90;39.20;;;;;;2256169;61;20357;-58
2021/08/07 04:39:42;0.00;0.00;0.62;0.00;0.00;0.62;2.50;1.73;;;24.90;39.20;;;;;;2255232;61;20388;-58
2021/08/07 04:42:11;0.00;0.00;0.62;0.00;0.00;0.62;2.50;1.80;;;24.80;39.10;;;;;;2252967;61;20360;-55
2021/08/07 04:44:39;0.00;0.00;0.62;0.00;0.00;0.62;2.50;1.70;;;24.80;39.10;;;;;;2255986;61;20392;-57
2021/08/07 04:47:05;0.00;0.00;0.62;0.00;0.00;0.62;1.60;1.43;;;24.70;39.10;;;;;;2252477;61;20590;-58
2021/08/07 04:49:33;0.00;0.00;0.62;0.00;0.00;0.62;2.93;1.80;;;24.70;39.10;;;;;;2255685;61;20356;-57
2021/08/07 04:52:01;0.00;0.00;0.62;0.00;0.00;0.62;2.50;1.90;;;24.60;39.10;;;;;;2252720;61;20435;-56
2021/08/07 04:54:28;0.00;0.00;0.62;0.00;0.00;0.62;2.30;1.60;;;24.60;39.20;;;;;;2255380;61;20420;-56
2021/08/07 04:56:55;0.00;0.00;0.62;0.00;0.00;0.62;2.23;1.30;;;24.60;39.30;;;;;;2255748;61;20558;-56
2021/08/07 04:59:22;0.00;0.00;0.62;0.00;0.00;0.62;4.27;2.07;;;24.50;39.30;;;;;;2253019;61;20403;-57
2021/08/07 05:01:50;0.00;0.00;0.62;0.00;0.00;0.62;3.03;1.70;;;24.50;39.40;;;;;;2252179;61;20399;-54
2021/08/07 05:04:16;0.00;0.00;0.62;0.00;0.00;0.62;2.13;1.63;;;24.50;39.40;;;;;;2255681;61;20367;-54
2021/08/07 05:06:46;0.00;0.00;0.62;0.00;0.00;0.62;2.33;1.60;;;24.50;39.40;;;;;;2255850;61;20361;-57
2021/08/07 05:09:14;0.00;0.00;0.62;0.00;0.00;0.62;2.23;1.60;;;24.40;40.00;;;;;;2255358;61;20353;-57
2021/08/07 05:11:59;0.00;0.00;0.62;0.00;0.00;0.62;1.97;1.43;;;24.40;39.30;;;;;;2255634;61;20438;-57
2021/08/07 05:14:26;0.00;0.00;0.62;0.00;0.00;0.62;2.33;1.70;;;24.40;39.30;;;;;;2255960;61;20380;-57
2021/08/07 05:16:54;0.00;0.00;0.62;0.00;0.00;0.62;2.03;1.73;;;24.40;39.30;;;;;;2252682;61;20361;-55
2021/08/07 05:19:22;0.00;0.00;0.62;0.00;0.00;0.62;2.27;1.63;;;24.30;39.20;;;;;;2255474;61;20361;-56
2021/08/07 05:21:48;0.00;0.00;0.62;0.00;0.00;0.62;2.73;1.70;;;24.30;39.20;;;;;;2255921;61;20689;-59
2021/08/07 05:24:15;0.00;0.00;0.62;0.00;0.00;0.62;3.03;1.80;;;24.30;39.30;;;;;;2255397;61;20365;-55
2021/08/07 05:26:42;0.00;0.00;0.62;0.00;0.00;0.62;2.33;1.37;;;24.30;39.50;;;;;;2256157;61;20353;-56
2021/08/07 05:29:08;0.00;0.00;0.62;0.00;0.00;0.62;2.83;1.70;;;24.30;39.50;;;;;;2256586;61;20357;-58
2021/08/07 05:31:35;0.00;0.00;0.62;0.00;0.00;0.62;2.00;1.50;;;24.30;39.50;;;;;;2253278;61;20381;-58
2021/08/07 05:34:03;0.00;0.00;0.62;0.00;0.00;0.62;1.97;1.43;;;24.30;39.60;;;;;;2256184;61;20716;-55
2021/08/07 05:36:30;0.00;0.00;0.62;0.00;0.00;0.62;1.87;1.43;;;24.30;39.60;;;;;;2256719;61;20357;-58
2021/08/07 05:38:57;0.00;0.00;0.62;0.00;0.00;0.62;1.73;1.50;;;24.30;39.70;;;;;;2256004;61;20383;-58
2021/08/07 05:41:23;0.00;0.00;0.62;0.00;0.00;0.62;1.83;1.33;;;24.30;39.70;;;;;;2253322;61;20381;-58
2021/08/07 05:43:50;0.00;0.00;0.62;0.00;0.00;0.62;2.20;1.60;;;24.30;39.80;;;;;;2256250;61;20415;-56
2021/08/07 05:46:18;0.00;0.00;0.62;0.00;0.00;0.62;1.50;1.30;;;24.30;39.80;;;;;;2255877;61;20807;-59
2021/08/07 05:48:45;0.00;0.00;0.62;0.00;0.00;0.62;3.10;1.67;;;24.30;39.80;;;;;;2256012;61;20356;-54
2021/08/07 05:51:12;0.00;0.00;0.62;0.00;0.00;0.62;2.17;1.90;;;24.40;40.00;;;;;;2253821;61;20388;-62
2021/08/07 05:53:39;0.00;0.00;0.62;0.00;0.00;0.62;2.70;1.77;;;24.50;40.00;;;;;;2255866;61;20387;-56
2021/08/07 05:56:07;0.00;0.00;0.62;0.00;0.00;0.62;3.10;1.53;;;24.50;39.90;;;;;;2256213;61;20357;-59
2021/08/07 05:58:39;0.00;0.00;0.62;0.00;0.00;0.62;3.23;1.67;;;24.50;39.80;;;;;;2256680;61;20404;-56
2021/08/07 06:01:09;0.00;0.00;0.62;0.00;0.00;0.62;2.30;1.43;;;24.50;39.80;;;;;;2255892;61;20395;-58
2021/08/07 06:03:36;0.00;0.00;0.62;0.00;0.00;0.62;3.10;1.60;;;24.50;39.70;;;;;;2256069;61;20376;-59
2021/08/07 06:06:02;0.00;0.00;0.62;0.00;0.00;0.62;2.83;1.60;;;24.50;39.70;;;;;;2253721;61;20369;-55
2021/08/07 06:08:31;0.00;0.00;0.62;0.00;0.00;0.62;2.50;1.60;;;24.60;39.70;;;;;;2255677;61;20716;-55
2021/08/07 06:10:58;0.00;0.00;0.62;0.00;0.00;0.62;2.90;1.80;;;24.60;39.50;;;;;;2256186;61;20389;-56
2021/08/07 06:13:25;0.00;0.00;0.62;0.00;0.00;0.62;2.87;1.57;;;24.60;39.50;;;;;;2256623;61;20732;-56
2021/08/07 06:15:52;0.00;0.00;0.62;0.00;0.00;0.62;2.83;1.87;;;24.50;39.40;;;;;;2255178;61;20367;-58
2021/08/07 06:18:19;0.00;0.00;0.62;0.00;0.00;0.62;2.80;1.67;;;24.50;39.40;;;;;;2256453;61;20363;-58
2021/08/07 06:20:46;0.00;0.00;0.62;0.00;0.00;0.62;2.83;1.83;;;24.50;39.40;;;;;;2256482;61;20954;-58
2021/08/07 06:23:13;0.00;0.00;0.62;0.00;0.00;0.62;2.73;1.73;;;24.50;39.40;;;;;;2252621;61;20364;-55
2021/08/07 06:25:41;0.00;0.00;0.62;0.00;0.00;0.62;1.83;1.50;;;24.50;39.50;;;;;;2256598;61;20403;-55
2021/08/07 06:28:10;0.00;0.00;0.62;0.00;0.00;0.62;4.10;1.50;;;24.50;39.50;;;;;;2253276;61;20605;-59
2021/08/07 06:30:45;0.00;0.00;0.62;0.00;0.00;0.62;3.80;1.67;;;24.50;39.50;;;;;;2255788;61;20373;-54
2021/08/07 06:33:16;0.00;0.00;0.62;0.00;0.00;0.62;2.10;1.57;;;24.40;39.50;;;;;;2256685;61;20389;-57
2021/08/07 06:35:42;0.00;0.00;0.62;0.00;0.00;0.62;2.03;1.60;;;24.40;39.50;;;;;;2256449;61;20364;-55
2021/08/07 06:38:09;0.00;0.00;0.62;0.00;0.00;0.62;1.90;1.50;;;24.40;39.60;;;;;;2255890;61;20360;-57
2021/08/07 06:40:37;0.00;0.00;0.62;0.00;0.00;0.62;1.70;1.50;;;24.40;39.70;;;;;;2256572;61;20387;-61
2021/08/07 06:43:07;0.00;0.00;0.62;0.00;0.00;0.62;1.93;1.50;;;24.30;39.70;;;;;;2256442;61;20568;-58
2021/08/07 06:45:36;0.00;0.00;0.62;0.00;0.00;0.62;1.70;1.40;;;24.30;39.70;;;;;;2255824;61;20360;-59
2021/08/07 06:48:06;0.00;0.00;0.62;0.00;0.00;0.62;1.80;1.70;;;24.30;39.80;;;;;;2256554;61;20361;-59
2021/08/07 06:50:34;0.00;0.00;0.62;0.00;0.00;0.62;2.70;1.50;;;24.30;39.80;;;;;;2256395;61;20381;-59
2021/08/07 06:53:01;0.00;0.00;0.62;0.00;0.00;0.62;5.50;1.60;;;24.30;39.90;;;;;;2255833;61;20380;-59
2021/08/07 06:55:27;0.00;0.00;0.62;0.00;0.00;0.62;2.43;1.53;;;24.30;39.90;;;;;;2256611;61;20410;-59
2021/08/07 06:57:54;0.00;0.00;0.62;0.00;0.00;0.62;2.07;1.50;;;24.30;39.90;;;;;;2256532;61;20365;-57
2021/08/07 07:00:24;0.00;0.00;0.62;0.00;0.00;0.62;2.43;1.60;;;24.30;40.00;;;;;;2255723;61;20364;-59
2021/08/07 07:02:50;0.00;0.00;0.62;0.00;0.00;0.62;2.40;1.50;;;24.30;40.00;;;;;;2256514;61;20767;-60
2021/08/07 07:05:18;0.00;0.00;0.62;0.00;0.00;0.62;2.60;1.47;;;24.30;40.00;;;;;;2256454;61;20357;-59
2021/08/07 07:07:45;0.00;0.00;0.62;0.00;0.00;0.62;2.73;1.70;;;24.30;40.00;;;;;;2255764;61;20365;-57
2021/08/07 07:10:14;0.00;0.00;0.62;0.00;0.00;0.62;2.67;1.73;;;24.30;40.00;;;;;;2256282;61;20377;-57
2021/08/07 07:12:42;0.00;0.00;0.62;0.00;0.00;0.62;2.23;1.53;;;24.20;40.00;;;;;;2256474;61;20364;-59
2021/08/07 07:15:10;0.00;0.00;0.62;0.00;0.00;0.62;3.53;1.70;;;24.20;40.00;;;;;;2252988;61;20356;-59
2021/08/07 07:17:38;0.00;0.00;0.62;0.00;0.00;0.62;2.70;1.60;;;24.20;40.00;;;;;;2256382;61;20701;-59
2021/08/07 07:20:07;0.00;0.00;0.62;0.00;0.00;0.62;2.43;1.40;;;24.20;40.00;;;;;;2256284;61;20384;-57
2021/08/07 07:22:36;0.00;0.00;0.62;0.00;0.00;0.62;2.33;1.60;;;24.20;40.00;;;;;;2255798;61;20572;-58
2021/08/07 07:25:04;0.00;0.00;0.62;0.00;0.00;0.62;2.53;1.63;;;24.20;40.00;;;;;;2253041;61;20758;-60
2021/08/07 07:27:31;0.00;0.00;0.62;0.00;0.00;0.62;2.03;1.43;;;24.20;40.00;;;;;;2256394;61;20361;-59
2021/08/07 07:29:58;0.00;0.00;0.62;0.00;0.00;0.62;2.43;1.50;;;24.20;40.00;;;;;;2255570;61;20371;-59
2021/08/07 07:32:25;0.00;0.00;0.62;0.00;0.00;0.62;2.90;1.20;;;24.20;40.00;;;;;;2256389;61;20407;-57
2021/08/07 07:34:52;0.00;0.00;0.62;0.00;0.00;0.62;1.70;1.30;;;24.30;40.10;;;;;;2256386;61;20384;-59
2021/08/07 07:37:19;0.00;0.00;0.62;0.00;0.00;0.62;2.07;1.50;;;24.30;40.10;;;;;;2255714;61;20590;-59
2021/08/07 07:39:46;0.00;0.00;0.62;0.00;0.00;0.62;2.83;1.83;;;24.30;40.00;;;;;;2256246;61;20377;-58
2021/08/07 07:42:13;0.00;0.00;0.62;0.00;0.00;0.62;2.10;1.43;;;24.30;40.00;;;;;;2256345;61;20356;-58
2021/08/07 07:44:40;0.00;0.00;0.62;0.00;0.00;0.62;2.23;1.37;;;24.30;40.00;;;;;;2255699;61;20349;-58
2021/08/07 07:47:07;0.00;0.00;0.62;0.00;0.00;0.62;1.70;1.27;;;24.30;40.00;;;;;;2256200;61;20357;-59
2021/08/07 07:49:33;0.00;0.00;0.62;0.00;0.00;0.62;2.00;1.47;;;24.30;40.00;;;;;;2256126;61;20420;-59
2021/08/07 07:52:02;0.00;0.00;0.62;0.00;0.00;0.62;3.37;1.67;;;24.30;40.00;;;;;;2255643;61;20592;-59
2021/08/07 07:54:29;0.00;0.00;0.62;0.00;0.00;0.62;3.37;1.80;;;24.30;40.00;;;;;;2253034;61;20381;-59
2021/08/07 07:56:56;0.00;0.00;0.62;0.00;0.00;0.62;1.90;1.47;;;24.30;40.00;;;;;;2256309;61;20598;-58
2021/08/07 07:59:24;0.00;0.00;0.62;0.00;0.00;0.62;2.20;1.40;;;24.30;40.00;;;;;;2252215;61;20357;-60
2021/08/07 08:01:51;0.00;0.00;0.62;0.00;0.00;0.62;2.27;1.10;;;24.30;40.00;;;;;;2256409;61;20360;-60
2021/08/07 08:04:17;0.00;0.00;0.62;0.00;0.00;0.62;2.77;1.37;;;24.30;40.00;;;;;;2256155;61;20587;-59
2021/08/07 08:06:44;0.00;0.00;0.62;0.00;0.00;0.62;2.37;1.30;;;24.40;40.10;;;;;;2255583;61;20627;-60
2021/08/07 08:09:12;0.00;0.00;0.62;0.00;0.00;0.62;2.40;1.37;;;24.40;40.20;;;;;;2256212;61;20379;-60
2021/08/07 08:11:39;0.00;0.00;0.62;0.00;0.00;0.62;2.80;1.30;;;24.40;40.10;;;;;;2256241;61;20384;-59
2021/08/07 08:14:06;0.00;0.00;0.62;0.00;0.00;0.62;1.83;1.60;;;24.40;40.00;;;;;;2255599;61;20383;-59
2021/08/07 08:16:32;0.00;0.00;0.62;0.00;0.00;0.62;2.00;1.60;;;24.50;40.10;;;;;;2253528;61;20411;-59
2021/08/07 08:18:58;0.00;0.00;0.62;0.00;0.00;0.62;3.97;1.83;;;24.50;40.00;;;;;;2256162;61;20357;-59
2021/08/07 08:21:26;0.00;0.00;0.62;0.00;0.00;0.62;2.47;1.60;;;24.50;40.00;;;;;;2255542;61;20431;-59
2021/08/07 08:23:52;0.00;0.00;0.62;0.00;0.00;0.62;1.83;1.50;;;24.50;39.90;;;;;;2253531;61;20349;-59
2021/08/07 08:26:21;0.00;0.00;0.62;0.00;0.00;0.62;2.10;1.53;;;24.50;39.80;;;;;;2253347;61;20407;-59
2021/08/07 08:28:47;0.00;0.00;0.62;0.00;0.00;0.62;2.53;1.40;;;24.50;39.60;;;;;;2255454;61;20360;-59
2021/08/07 08:31:14;0.00;0.00;0.62;0.00;0.00;0.62;2.83;1.80;;;24.60;39.70;;;;;;2253429;61;20474;-59
2021/08/07 08:33:41;0.00;0.00;0.62;0.00;0.00;0.62;2.30;1.50;;;24.60;39.70;;;;;;2256215;61;20418;-57
2021/08/07 08:36:07;0.00;0.00;0.62;0.00;0.00;0.62;1.80;1.37;;;24.60;39.70;;;;;;2255657;61;20357;-59
2021/08/07 08:38:35;0.00;0.00;0.62;0.00;0.00;0.62;1.73;1.20;;;24.60;39.70;;;;;;2256135;61;20367;-64
2021/08/07 08:41:02;0.00;0.00;0.62;0.00;0.00;0.62;2.23;1.23;;;24.60;39.60;;;;;;2256177;61;20376;-57
2021/08/07 08:43:32;0.00;0.00;0.62;0.00;0.00;0.62;1.70;1.30;;;24.60;39.50;;;;;;2255576;61;20344;-60
2021/08/07 08:45:59;0.00;0.00;0.62;0.00;0.00;0.62;2.00;1.40;;;24.70;39.60;;;;;;2256122;61;20356;-59
2021/08/07 08:48:26;0.00;0.00;0.62;0.00;0.00;0.62;2.30;1.50;;;24.70;39.60;;;;;;2256082;61;20487;-57
2021/08/07 08:50:53;0.00;0.00;0.62;0.00;0.00;0.62;1.50;1.10;;;24.70;39.60;;;;;;2255611;61;20724;-60
2021/08/07 08:53:20;0.00;0.00;0.62;0.00;0.00;0.62;2.13;1.70;;;24.70;39.60;;;;;;2256202;61;20612;-60
2021/08/07 08:55:48;0.00;0.00;0.62;0.00;0.00;0.62;1.50;1.10;;;24.70;39.60;;;;;;2256174;61;20357;-56
2021/08/07 08:58:16;0.00;0.00;0.62;0.00;0.00;0.62;2.40;1.70;;;24.80;39.70;;;;;;2255646;61;20360;-57
2021/08/07 09:00:45;0.00;0.00;0.62;0.00;0.00;0.62;1.80;1.27;;;24.80;39.70;;;;;;2256660;61;20395;-59
2021/08/07 09:03:12;0.00;0.00;0.62;0.00;0.00;0.62;2.70;1.40;;;24.80;39.60;;;;;;2254074;61;20400;-56
2021/08/07 09:05:39;0.00;0.00;0.62;0.00;0.00;0.62;2.00;1.40;;;24.80;39.50;;;;;;2252971;61;20677;-58
2021/08/07 09:08:06;0.00;0.00;0.62;0.00;0.00;0.62;2.60;1.40;;;24.80;39.50;;;;;;2254004;61;20367;-61
2021/08/07 09:10:34;0.00;0.00;0.62;0.00;0.00;0.62;3.03;1.57;;;24.90;39.50;;;;;;2256703;61;20383;-60
2021/08/07 09:13:04;0.00;0.00;0.62;0.00;0.00;0.62;2.63;1.20;;;24.90;39.40;;;;;;2256154;61;20352;-58
2021/08/07 09:15:35;0.00;0.00;0.62;0.00;0.00;0.62;1.87;1.37;;;24.90;39.20;;;;;;2253535;61;20628;-60
2021/08/07 09:18:16;0.00;0.00;0.62;0.00;0.00;0.62;1.73;1.10;;;24.90;39.00;;;;;;2256881;61;20349;-59
2021/08/07 09:20:55;0.00;0.00;0.62;0.00;0.00;0.62;1.60;1.20;;;24.90;38.90;;;;;;2253311;61;20475;-58
2021/08/07 09:23:32;0.00;0.00;0.62;0.00;0.00;0.62;2.60;1.40;;;25.00;38.90;;;;;;2256736;61;20697;-60
2021/08/07 09:26:13;0.00;0.00;0.62;0.00;0.00;0.62;1.70;1.20;;;25.00;38.80;;;;;;2256884;61;20619;-58
2021/08/07 09:28:50;0.00;0.00;0.62;0.00;0.00;0.62;1.60;1.20;;;25.00;38.70;;;;;;2255977;61;20407;-60
2021/08/07 09:31:20;0.00;0.00;0.62;0.00;0.00;0.62;1.60;1.20;;;25.00;38.70;;;;;;2256674;61;20384;-60
2021/08/07 09:34:15;0.00;0.00;0.62;0.00;0.00;0.62;1.80;1.10;;;25.00;38.70;;;;;;2256843;61;20746;-61
2021/08/07 09:36:47;0.00;0.00;0.62;0.00;0.00;0.62;2.40;1.53;;;25.10;38.80;;;;;;2256234;61;20495;-60
2021/08/07 09:39:15;0.00;0.00;0.62;0.00;0.00;0.62;1.63;1.50;;;25.10;38.80;;;;;;2256709;61;20363;-60
2021/08/07 09:41:56;0.00;0.00;0.62;0.00;0.00;0.62;2.17;1.60;;;25.10;38.90;;;;;;2253865;61;20388;-60
2021/08/07 09:44:24;0.00;0.00;0.62;0.00;0.00;0.62;2.03;1.67;;;25.10;39.00;;;;;;2256564;61;20584;-60
2021/08/07 09:47:02;0.00;0.00;0.62;0.00;0.00;0.62;3.53;1.63;;;25.20;39.10;;;;;;2256768;61;20364;-60
2021/08/07 09:49:35;0.00;0.00;0.62;0.00;0.00;0.62;2.07;1.63;;;25.20;39.10;;;;;;2253130;61;20610;-56